METAR Data
IDs: Format: Raw Decoded Include TAF

Data at: 1802 UTC 16 Oct 2021

KCOT 161753Z AUTO 36010KT 10SM CLR 24/04 A3036 RMK AO2 SLP275 T02440044 10244 20161 58005
KCOT 161653Z AUTO 05010KT 10SM CLR 23/04 A3038 RMK AO2 SLP281 T02330039
KCOT 161553Z AUTO 05013KT 10SM CLR 22/04 A3040 RMK AO2 SLP286 T02220044
KCOT 161453Z AUTO 05012G18KT 10SM CLR 21/06 A3038 RMK AO2 SLP281 T02060056 53023
KCOT 161353Z AUTO 35007KT 10SM CLR 18/08 A3036 RMK AO2 SLP274 T01830078
KCOT 161253Z AUTO 35007KT 10SM CLR 17/08 A3033 RMK AO2 SLP265 T01670083
KCOT 161153Z AUTO 30005KT 10SM CLR 17/08 A3031 RMK AO2 SLP258 T01670083 10228 20167 53024
KCOT 161053Z AUTO 01007KT 10SM FEW090 19/07 A3027 RMK AO2 SLP244 T01890072
KCOT 160953Z AUTO 03008KT 10SM SCT075 BKN090 20/07 A3025 RMK AO2 SLP237 T02000072
KCOT 160853Z AUTO 04007KT 10SM BKN065 BKN085 21/08 A3024 RMK AO2 SLP233 T02060083 52017
KCOT 160753Z AUTO 03010G19KT 10SM BKN060 22/09 A3023 RMK AO2 SLP227 T02170094
KCOT 160653Z AUTO 03014G20KT 10SM BKN060 22/11 A3020 RMK AO2 SLP220 T02220106
KCOT 160553Z AUTO 03008KT 10SM OVC060 23/12 A3019 RMK AO2 SLP215 T02280117 10278 20228 403500228 51029
KCOT 160453Z AUTO 04006KT 10SM SCT050 23/13 A3017 RMK AO2 SLP208 T02330133
KCOT 160353Z AUTO 03005KT 10SM FEW045 24/14 A3015 RMK AO2 SLP200 T02390139
KCOT 160253Z AUTO 03011KT 10SM CLR 25/14 A3010 RMK AO2 SLP185 T02500139 53042
KCOT 160153Z AUTO 04010KT 10SM CLR 26/15 A3005 RMK AO2 SLP167 T02610150
KCOT 160053Z AUTO 03014G22KT 10SM FEW110 27/17 A2998 RMK AO2 SLP146 T02670167
KCOT 152353Z AUTO 03011G19KT 10SM CLR 28/18 A2998 RMK AO2 SLP142 60000 T02780183 10350 20278 53014
KCOT 152253Z AUTO 03015G22KT 10SM CLR 28/20 A2995 RMK AO2 LTG DSNT SW SLP134 T02830200
KCOT 152153Z AUTO 01008KT 10SM SCT110 34/16 A2993 RMK AO2 LTG DSNT W-NE RAB2057E11 PRESRR SLP127 P0000 T03440161
KCOT 152053Z AUTO 35016G27KT 10SM SCT041 BKN050 BKN065 28/19 A2993 RMK AO2 PK WND 34027/2047 LTG DSNT N SLP128 T02830189 55012
KCOT 151953Z AUTO 00000KT 10SM FEW035 33/22 A2992 RMK AO2 SLP123 T03330222
KCOT 151906Z AUTO VRB05KT 9SM FEW027 BKN035 BKN045 32/23 A2995 RMK AO2 T03170233
KCOT 151853Z AUTO 02006KT 9SM BKN027 BKN035 BKN047 32/23 A2995 RMK AO2 SLP135 T03170233
KCOT 151846Z AUTO 03006KT 9SM BKN025 BKN032 32/23 A2996 RMK AO2 T03170233
KCOT 151835Z AUTO VRB04KT 9SM SCT027 31/23 A2996 RMK AO2 T03110233
KCOT 151753Z AUTO VRB04KT 8SM BKN016 OVC022 31/24 A2997 RMK AO2 RAB25E40 SLP141 P0000 60000 T03060239 10306 20244 50009
KCOT 151653Z AUTO 00000KT 8SM OVC015 29/24 A2998 RMK AO2 SLP144 T02890239
KCOT 151643Z AUTO 00000KT 7SM OVC015 28/24 A2998 RMK AO2 T02830239
KCOT 151553Z AUTO 05003KT 8SM OVC012 28/24 A2997 RMK AO2 SLP141 T02830239
KCOT 151528Z AUTO 17004KT 8SM OVC010 28/24 A2996 RMK AO2 T02780239
KCOT 151453Z AUTO 14007KT 6SM HZ BKN007 27/24 A2994 RMK AO2 CIG 005V010 SLP132 T02670239 53020
KCOT 151427Z AUTO 15006KT 4SM BR SCT003 OVC009 26/24 A2993 RMK AO2 T02560244
KCOT 151409Z AUTO 14006KT 3SM BR BKN002 OVC009 25/24 A2992 RMK AO2 T02500239
KCOT 151353Z AUTO 12005KT 1SM BR OVC002 24/24 A2992 RMK AO2 SLP124 T02440239
KCOT 151253Z AUTO 12004KT 1/2SM FG VV002 24/23 A2990 RMK AO2 SLP116 T02440233
KCOT 151153Z AUTO 11006KT 1/2SM FG VV002 24/23 A2988 RMK AO2 SLP111 T02440233 10250 20244 51009
KCOT 151149Z AUTO 11006KT 1/4SM FG VV002 24/23 A2988 RMK AO2
KCOT 151053Z AUTO 10005KT 1/2SM FG VV002 24/23 A2987 RMK AO2 SLP106 T02440233
KCOT 151006Z AUTO 10006KT 1/2SM FG VV002 25/23 A2986 RMK AO2 T02500233
KCOT 150953Z AUTO 10005KT 1 3/4SM BR BKN002 OVC011 25/23 A2986 RMK AO2 SLP102 T02500233
KCOT 150946Z AUTO 10005KT 4SM BR BKN002 OVC011 25/23 A2986 RMK AO2 T02500233
KCOT 150853Z AUTO 10005KT 6SM BR FEW004 OVC011 25/23 A2985 RMK AO2 SLP100 T02500233 53001
KCOT 150818Z AUTO 07005KT 7SM FEW006 BKN013 24/23 A2985 RMK AO2 T02440228
KCOT 150753Z AUTO 08003KT 8SM FEW007 SCT013 24/23 A2985 RMK AO2 SLP100 T02440228
KCOT 150653Z AUTO 10006KT 10SM CLR 25/22 A2984 RMK AO2 SLP098 T02500222